sensor_id;sensor_type;location;lat;lon;timestamp;pressure;altitude;pressure_sealevel;temperature;humidity
44297;BME280;51842;47.450;8.654;2023-01-26T00:01:36;95883.94;;;-0.82;97.39
44297;BME280;51842;47.450;8.654;2023-01-26T00:04:11;95874.75;;;-0.78;97.35
44297;BME280;51842;47.450;8.654;2023-01-26T00:06:37;95872.31;;;-0.80;97.23
44297;BME280;51842;47.450;8.654;2023-01-26T00:09:09;95876.75;;;-0.80;97.47
44297;BME280;51842;47.450;8.654;2023-01-26T00:11:40;95877.38;;;-0.78;97.20
44297;BME280;51842;47.450;8.654;2023-01-26T00:14:06;95862.47;;;-0.78;97.09
44297;BME280;51842;47.450;8.654;2023-01-26T00:16:35;95874.38;;;-0.75;97.08
44297;BME280;51842;47.450;8.654;2023-01-26T00:19:01;95872.78;;;-0.91;97.35
44297;BME280;51842;47.450;8.654;2023-01-26T00:21:30;95865.94;;;-0.92;97.25
44297;BME280;51842;47.450;8.654;2023-01-26T00:24:00;95859.91;;;-0.93;97.58
44297;BME280;51842;47.450;8.654;2023-01-26T00:26:32;95860.28;;;-0.96;97.78
44297;BME280;51842;47.450;8.654;2023-01-26T00:29:00;95858.25;;;-1.00;98.40
44297;BME280;51842;47.450;8.654;2023-01-26T00:31:29;95859.03;;;-1.00;98.46
44297;BME280;51842;47.450;8.654;2023-01-26T00:33:56;95859.47;;;-0.96;97.90
44297;BME280;51842;47.450;8.654;2023-01-26T00:36:22;95853.38;;;-1.03;97.32
44297;BME280;51842;47.450;8.654;2023-01-26T00:38:48;95864.22;;;-1.06;97.65
44297;BME280;51842;47.450;8.654;2023-01-26T00:41:17;95859.84;;;-0.99;97.08
44297;BME280;51842;47.450;8.654;2023-01-26T00:44:01;95862.09;;;-0.96;97.45
44297;BME280;51842;47.450;8.654;2023-01-26T00:46:27;95860.09;;;-0.94;96.95
44297;BME280;51842;47.450;8.654;2023-01-26T00:48:53;95857.66;;;-0.96;96.63
44297;BME280;51842;47.450;8.654;2023-01-26T00:51:19;95864.34;;;-0.93;96.64
44297;BME280;51842;47.450;8.654;2023-01-26T00:53:48;95865.50;;;-0.96;96.93
44297;BME280;51842;47.450;8.654;2023-01-26T00:56:14;95858.84;;;-0.98;97.36
44297;BME280;51842;47.450;8.654;2023-01-26T00:58:47;95857.41;;;-1.01;97.51
44297;BME280;51842;47.450;8.654;2023-01-26T01:01:16;95851.38;;;-1.01;97.66
44297;BME280;51842;47.450;8.654;2023-01-26T01:03:50;95853.00;;;-1.00;97.96
44297;BME280;51842;47.450;8.654;2023-01-26T01:06:17;95850.56;;;-1.02;99.01
44297;BME280;51842;47.450;8.654;2023-01-26T01:08:48;95854.25;;;-0.96;98.74
44297;BME280;51842;47.450;8.654;2023-01-26T01:11:14;95854.31;;;-0.89;98.37
44297;BME280;51842;47.450;8.654;2023-01-26T01:13:40;95853.50;;;-0.90;98.05
44297;BME280;51842;47.450;8.654;2023-01-26T01:16:10;95845.09;;;-0.85;97.98
44297;BME280;51842;47.450;8.654;2023-01-26T01:18:39;95848.13;;;-0.82;97.61
44297;BME280;51842;47.450;8.654;2023-01-26T01:21:17;95842.91;;;-0.82;97.98
44297;BME280;51842;47.450;8.654;2023-01-26T01:23:46;95848.75;;;-0.80;98.16
44297;BME280;51842;47.450;8.654;2023-01-26T01:26:16;95843.38;;;-0.78;97.83
44297;BME280;51842;47.450;8.654;2023-01-26T01:28:45;95852.56;;;-0.82;98.03
44297;BME280;51842;47.450;8.654;2023-01-26T01:31:15;95842.72;;;-0.80;97.64
44297;BME280;51842;47.450;8.654;2023-01-26T01:33:42;95840.84;;;-0.86;97.67
44297;BME280;51842;47.450;8.654;2023-01-26T01:36:14;95840.84;;;-0.86;97.46
44297;BME280;51842;47.450;8.654;2023-01-26T01:38:42;95840.06;;;-0.87;97.57
44297;BME280;51842;47.450;8.654;2023-01-26T01:41:18;95836.06;;;-0.83;97.03
44297;BME280;51842;47.450;8.654;2023-01-26T01:43:45;95834.44;;;-0.84;96.96
44297;BME280;51842;47.450;8.654;2023-01-26T01:46:29;95838.63;;;-0.89;97.78
44297;BME280;51842;47.450;8.654;2023-01-26T01:49:13;95832.38;;;-0.88;97.51
44297;BME280;51842;47.450;8.654;2023-01-26T01:51:53;95832.59;;;-0.90;97.56
44297;BME280;51842;47.450;8.654;2023-01-26T01:57:26;95822.66;;;-0.95;97.35
44297;BME280;51842;47.450;8.654;2023-01-26T02:00:22;95833.56;;;-1.12;97.28
44297;BME280;51842;47.450;8.654;2023-01-26T02:03:06;95828.41;;;-1.06;97.48
44297;BME280;51842;47.450;8.654;2023-01-26T02:08:53;95822.00;;;-1.03;97.54
44297;BME280;51842;47.450;8.654;2023-01-26T02:11:42;95823.72;;;-1.10;97.56
44297;BME280;51842;47.450;8.654;2023-01-26T02:14:15;95821.38;;;-1.05;97.52
44297;BME280;51842;47.450;8.654;2023-01-26T02:16:41;95821.63;;;-1.00;97.44
44297;BME280;51842;47.450;8.654;2023-01-26T02:19:48;95809.34;;;-1.00;97.53
44297;BME280;51842;47.450;8.654;2023-01-26T02:23:02;95815.94;;;-1.04;97.50
44297;BME280;51842;47.450;8.654;2023-01-26T02:28:21;95802.31;;;-0.99;97.74
44297;BME280;51842;47.450;8.654;2023-01-26T02:30:48;95803.94;;;-0.98;97.62
44297;BME280;51842;47.450;8.654;2023-01-26T02:33:26;95797.09;;;-0.99;97.36
44297;BME280;51842;47.450;8.654;2023-01-26T02:36:10;95801.88;;;-1.03;97.62
44297;BME280;51842;47.450;8.654;2023-01-26T02:41:50;95798.47;;;-1.03;96.86
44297;BME280;51842;47.450;8.654;2023-01-26T02:44:38;95775.47;;;-1.08;96.60
44297;BME280;51842;47.450;8.654;2023-01-26T02:47:17;95784.38;;;-1.02;96.64
44297;BME280;51842;47.450;8.654;2023-01-26T02:49:44;95782.78;;;-1.03;96.32
44297;BME280;51842;47.450;8.654;2023-01-26T02:52:21;95783.16;;;-1.06;96.50
44297;BME280;51842;47.450;8.654;2023-01-26T02:54:51;95780.72;;;-1.08;96.26
44297;BME280;51842;47.450;8.654;2023-01-26T02:57:36;95769.88;;;-1.05;96.45
44297;BME280;51842;47.450;8.654;2023-01-26T03:00:19;95772.88;;;-1.08;96.04
44297;BME280;51842;47.450;8.654;2023-01-26T03:02:54;95770.25;;;-1.08;95.78
44297;BME280;51842;47.450;8.654;2023-01-26T03:05:21;95771.25;;;-1.09;95.76
44297;BME280;51842;47.450;8.654;2023-01-26T03:07:47;95765.59;;;-1.12;96.01
44297;BME280;51842;47.450;8.654;2023-01-26T03:10:14;95766.56;;;-1.13;95.96
44297;BME280;51842;47.450;8.654;2023-01-26T03:12:45;95763.41;;;-1.09;95.99
44297;BME280;51842;47.450;8.654;2023-01-26T03:15:11;95766.63;;;-1.07;96.68
44297;BME280;51842;47.450;8.654;2023-01-26T03:18:13;95761.59;;;-1.08;96.73
44297;BME280;51842;47.450;8.654;2023-01-26T03:21:01;95757.00;;;-1.06;96.99
